Terminal Aerodrome Forecast
Issued by NWS

Home | Current Version | Previous Version | Text Only | Print | Product List | Glossary On
Versions: 1 2 3 4 5 6 7 8 9 10 11 12 13 14
000
FTAK31 PAFA 241127
TAFAGA
TAF
PAGA 241127Z 2412/2512 12009KT 3SM -SN BR SCT021 OVC028
      TEMPO 2412/2414 5SM -SHSN BR
     FM242200 15005KT P6SM SCT035 BKN100
     FM250400 15004KT 6SM -SHSN BR SCT015 BKN035 OVC100=

USA.gov is the U.S. government's official web portal to all federal, state and local government web resources and services.